createdAt,value
2022-11-26T00:00:33.190Z,102451.41
2022-11-26T00:05:57.224Z,102434.00
2022-11-26T00:11:20.463Z,102447.03
2022-11-26T00:16:45.607Z,102458.19
2022-11-26T00:22:16.412Z,102465.91
2022-11-26T00:27:39.712Z,102473.47
2022-11-26T00:33:04.377Z,102465.66
2022-11-26T00:38:27.596Z,102475.09
2022-11-26T00:43:50.803Z,102468.97
2022-11-26T00:49:15.857Z,102471.47
2022-11-26T00:54:39.344Z,102479.19
2022-11-26T01:00:03.045Z,102480.03
2022-11-26T01:05:30.552Z,102473.09
2022-11-26T01:10:53.696Z,102477.44
2022-11-26T01:16:20.753Z,102468.66
2022-11-26T01:21:45.499Z,102474.78
2022-11-26T01:27:10.835Z,102483.53
2022-11-26T01:32:34.086Z,102482.78
2022-11-26T01:37:58.915Z,102486.13
2022-11-26T01:43:26.777Z,102508.63
2022-11-26T01:48:51.348Z,102510.44
2022-11-26T01:54:16.384Z,102510.53
2022-11-26T01:59:42.304Z,102510.53
2022-11-26T02:05:10.380Z,102518.31
2022-11-26T02:10:35.085Z,102527.50
2022-11-26T02:16:06.614Z,102512.78
2022-11-26T02:21:30.445Z,102524.03
2022-11-26T02:27:27.074Z,102519.56
2022-11-26T02:32:59.206Z,102514.38
2022-11-26T02:38:24.589Z,102517.03
2022-11-26T02:43:48.037Z,102524.81
2022-11-26T02:49:14.319Z,102525.66
2022-11-26T02:54:37.965Z,102528.41
2022-11-26T03:00:01.410Z,102538.94
2022-11-26T03:05:27.074Z,102539.91
2022-11-26T03:10:50.258Z,102545.28
2022-11-26T03:16:13.431Z,102540.69
2022-11-26T03:21:38.135Z,102551.16
2022-11-26T03:27:01.326Z,102548.81
2022-11-26T03:32:24.461Z,102554.72
2022-11-26T03:37:49.137Z,102564.31
2022-11-26T03:43:12.313Z,102562.59
2022-11-26T03:48:35.615Z,102568.78
2022-11-26T03:54:00.195Z,102572.28
2022-11-26T03:59:23.384Z,102570.69
2022-11-26T04:04:46.556Z,102557.47
2022-11-26T04:10:11.587Z,102573.13
2022-11-26T04:15:35.111Z,102577.50
2022-11-26T04:20:58.364Z,102588.97
2022-11-26T04:26:23.028Z,102580.22
2022-11-26T04:31:46.321Z,102581.78
2022-11-26T04:37:09.551Z,102588.66
2022-11-26T04:42:34.452Z,102591.56
2022-11-26T04:47:57.600Z,102570.78
2022-11-26T04:53:22.068Z,102580.38
2022-11-26T04:58:46.685Z,102595.00
2022-11-26T05:04:09.984Z,102594.94
2022-11-26T05:09:33.152Z,102609.44
2022-11-26T05:14:57.685Z,102612.88
2022-11-26T05:20:21.079Z,102611.66
2022-11-26T05:25:44.236Z,102618.66
2022-11-26T05:31:09.441Z,102608.13
2022-11-26T05:36:32.713Z,102616.94
2022-11-26T05:41:55.959Z,102631.63
2022-11-26T05:47:20.553Z,102634.19
2022-11-26T05:52:43.717Z,102632.06
2022-11-26T05:58:09.686Z,102632.16
2022-11-26T06:03:34.260Z,102615.88
2022-11-26T06:08:57.577Z,102630.31
2022-11-26T06:14:20.689Z,102640.56
2022-11-26T06:19:45.324Z,102645.81
2022-11-26T06:25:09.462Z,102650.66
2022-11-26T06:30:32.783Z,102649.28
2022-11-26T06:36:01.396Z,102651.47
2022-11-26T06:41:24.573Z,102640.56
2022-11-26T06:46:47.739Z,102665.75
2022-11-26T06:52:12.319Z,102669.69
2022-11-26T06:57:35.590Z,102658.00
2022-11-26T07:02:58.820Z,102666.81
2022-11-26T07:08:23.430Z,102679.00
2022-11-26T07:13:46.679Z,102657.28
2022-11-26T07:19:13.631Z,102692.81
2022-11-26T07:24:38.440Z,102707.97
2022-11-26T07:30:01.726Z,102708.41
2022-11-26T07:35:25.162Z,102707.88
2022-11-26T07:40:49.782Z,102697.59
2022-11-26T07:46:15.082Z,102699.34
2022-11-26T07:51:39.757Z,102697.69
2022-11-26T07:57:04.469Z,102700.41
2022-11-26T08:02:27.842Z,102706.69
2022-11-26T08:07:51.259Z,102702.09
2022-11-26T08:13:15.856Z,102704.72
2022-11-26T08:18:39.311Z,102713.75
2022-11-26T08:24:03.656Z,102706.06
2022-11-26T08:29:28.547Z,102714.59
2022-11-26T08:34:51.789Z,102706.97
2022-11-26T08:40:15.163Z,102714.78
2022-11-26T08:45:39.723Z,102718.16
2022-11-26T08:51:04.453Z,102714.59
2022-11-26T08:56:27.701Z,102658.44
2022-11-26T09:01:52.405Z,102730.59
2022-11-26T09:07:16.194Z,102731.72
2022-11-26T09:12:39.445Z,102725.53
2022-11-26T09:18:04.005Z,102726.66
2022-11-26T09:23:27.190Z,102746.78
2022-11-26T09:28:50.548Z,102741.09
2022-11-26T09:34:15.198Z,102728.09
2022-11-26T09:39:38.473Z,102726.38
2022-11-26T09:45:06.105Z,102740.53
2022-11-26T09:50:35.422Z,102730.13
2022-11-26T09:55:58.604Z,102741.28
2022-11-26T10:01:23.439Z,102732.66
2022-11-26T10:06:55.084Z,102738.91
2022-11-26T10:12:28.025Z,102741.34
2022-11-26T10:17:58.512Z,102749.19
2022-11-26T10:23:29.134Z,102746.19
2022-11-26T10:28:54.403Z,102741.47
2022-11-26T10:34:19.993Z,102732.94
2022-11-26T10:39:46.530Z,102740.75
2022-11-26T10:45:19.643Z,102727.91
2022-11-26T10:50:48.088Z,102728.91
2022-11-26T10:56:18.573Z,102717.69
2022-11-26T11:01:42.541Z,102699.91
2022-11-26T11:07:11.689Z,102699.28
2022-11-26T11:12:37.083Z,102704.38
2022-11-26T11:18:01.539Z,102693.69
2022-11-26T11:23:45.806Z,102719.09
2022-11-26T11:29:24.737Z,102716.47
2022-11-26T11:34:47.943Z,102725.25
2022-11-26T11:40:17.458Z,102714.06
2022-11-26T11:45:45.533Z,102715.91
2022-11-26T11:51:19.261Z,102701.13
2022-11-26T11:56:45.676Z,102689.81
2022-11-26T12:02:27.122Z,102701.16
2022-11-26T12:07:55.417Z,102706.63
2022-11-26T12:13:21.883Z,102704.69
2022-11-26T12:18:49.404Z,102698.53
2022-11-26T12:24:15.359Z,102691.34
2022-11-26T12:29:41.625Z,102695.78
2022-11-26T12:35:12.438Z,102696.69
2022-11-26T12:40:37.728Z,102687.00
2022-11-26T12:46:02.821Z,102678.38
2022-11-26T12:51:34.723Z,102676.66
2022-11-26T12:57:01.230Z,102667.34
2022-11-26T13:02:26.338Z,102665.72
2022-11-26T13:08:16.817Z,102644.81
2022-11-26T13:13:44.215Z,102641.22
2022-11-26T13:19:11.709Z,102648.13
2022-11-26T13:24:48.816Z,102643.81
2022-11-26T13:30:16.198Z,102635.22
2022-11-26T13:36:00.315Z,102635.25
2022-11-26T13:41:33.582Z,102630.84
2022-11-26T13:46:58.328Z,102629.94
2022-11-26T13:52:24.956Z,102627.25
2022-11-26T13:57:53.204Z,102631.53
2022-11-26T14:03:44.579Z,102629.81
2022-11-26T14:09:07.895Z,102636.72
2022-11-26T14:14:34.977Z,102635.03
2022-11-26T14:20:02.465Z,102637.66
2022-11-26T14:25:38.545Z,102640.19
2022-11-26T14:31:15.180Z,102630.59
2022-11-26T14:36:39.965Z,102621.97
2022-11-26T14:42:06.317Z,102627.22
2022-11-26T14:47:31.999Z,102631.63
2022-11-26T14:52:59.509Z,102634.97
2022-11-26T14:58:29.683Z,102637.41
2022-11-26T15:04:02.067Z,102633.81
2022-11-26T15:09:26.811Z,102640.63
2022-11-26T15:14:54.624Z,102627.38
2022-11-26T15:20:19.686Z,102626.47
2022-11-26T15:25:48.202Z,102628.09
2022-11-26T15:31:11.976Z,102624.88
2022-11-26T15:36:39.145Z,102633.28
2022-11-26T15:42:07.836Z,102640.09
2022-11-26T15:47:31.258Z,102644.31
2022-11-26T15:52:58.897Z,102645.25
2022-11-26T15:58:25.665Z,102658.25
2022-11-26T16:03:50.291Z,102634.75
2022-11-26T16:09:28.167Z,102640.59
2022-11-26T16:14:51.610Z,102628.22
2022-11-26T16:20:20.415Z,102638.72
2022-11-26T16:26:08.601Z,102628.31
2022-11-26T16:31:32.297Z,102635.03
2022-11-26T16:37:01.879Z,102621.25
2022-11-26T16:42:26.540Z,102632.44
2022-11-26T16:47:51.269Z,102633.63
2022-11-26T16:53:14.421Z,102633.63
2022-11-26T16:58:39.768Z,102626.38
2022-11-26T17:04:03.001Z,102633.34
2022-11-26T17:09:26.231Z,102597.66
2022-11-26T17:20:17.538Z,102596.00
2022-11-26T17:25:40.733Z,102592.59
2022-11-26T17:31:05.467Z,102591.75
2022-11-26T17:36:33.853Z,102595.09
2022-11-26T17:41:59.761Z,102585.38
2022-11-26T17:47:26.835Z,102580.97
2022-11-26T17:52:50.162Z,102579.94
2022-11-26T17:58:13.395Z,102572.06
2022-11-26T18:03:37.975Z,102575.38
2022-11-26T18:09:01.227Z,102566.69
2022-11-26T18:14:24.806Z,102551.97
2022-11-26T18:19:49.896Z,102553.72
2022-11-26T18:25:13.653Z,102546.75
2022-11-26T18:30:36.908Z,102551.00
2022-11-26T18:36:01.636Z,102535.44
2022-11-26T18:41:24.914Z,102530.03
2022-11-26T18:46:48.581Z,102534.28
2022-11-26T18:52:13.133Z,102524.56
2022-11-26T18:57:36.599Z,102531.41
2022-11-26T19:02:59.855Z,102517.41
2022-11-26T19:08:24.820Z,102517.31
2022-11-26T19:13:48.619Z,102546.78
2022-11-26T19:19:12.005Z,102529.25
2022-11-26T19:24:36.803Z,102540.44
2022-11-26T19:29:59.941Z,102551.50
2022-11-26T19:35:23.217Z,102562.72
2022-11-26T19:40:47.863Z,102562.94
2022-11-26T19:46:12.900Z,102560.25
2022-11-26T19:51:36.243Z,102559.34
2022-11-26T19:57:00.801Z,102578.19
2022-11-26T20:02:24.064Z,102577.25
2022-11-26T20:07:47.374Z,102589.38
2022-11-26T20:13:12.582Z,102602.34
2022-11-26T20:18:38.421Z,102604.88
2022-11-26T20:24:03.481Z,102610.69
2022-11-26T20:29:28.133Z,102604.63
2022-11-26T20:34:51.334Z,102600.22
2022-11-26T20:40:15.804Z,102595.00
2022-11-26T20:45:40.641Z,102598.59
2022-11-26T20:51:05.459Z,102582.44
2022-11-26T20:56:29.708Z,102570.50
2022-11-26T21:01:54.455Z,102559.84
2022-11-26T21:07:17.756Z,102540.69
2022-11-26T21:12:41.001Z,102519.81
2022-11-26T21:18:06.024Z,102498.94
2022-11-26T21:23:29.217Z,102488.50
2022-11-26T21:28:53.543Z,102487.59
2022-11-26T21:34:18.212Z,102484.91
2022-11-26T21:39:41.658Z,102472.63
2022-11-26T21:45:05.550Z,102464.84
2022-11-26T21:50:30.216Z,102458.91
2022-11-26T21:55:53.686Z,102455.34
2022-11-26T22:01:19.116Z,102449.22
2022-11-26T22:06:44.713Z,102436.25
2022-11-26T22:12:08.673Z,102443.22
2022-11-26T22:17:31.756Z,102423.38
2022-11-26T22:22:56.357Z,102422.56
2022-11-26T22:28:19.539Z,102416.53
2022-11-26T22:33:42.799Z,102409.72
2022-11-26T22:39:11.408Z,102388.00
2022-11-26T22:44:35.015Z,102388.84
2022-11-26T22:49:58.180Z,102384.47
2022-11-26T22:55:23.369Z,102369.81
2022-11-26T23:00:50.780Z,102361.13
2022-11-26T23:06:15.835Z,102358.34
2022-11-26T23:11:41.989Z,102369.50
2022-11-26T23:17:05.172Z,102353.00
2022-11-26T23:22:28.928Z,102356.41
2022-11-26T23:27:53.517Z,102354.59
2022-11-26T23:33:16.626Z,102353.69
2022-11-26T23:38:41.151Z,102337.09
2022-11-26T23:44:06.033Z,102336.09
2022-11-26T23:49:29.254Z,102353.53
2022-11-26T23:54:52.469Z,102343.00
